Time;durP1;ratioP1;P1;durP2;ratioP2;P2;SDS_P1;SDS_P2;PMS_P1;PMS_P2;Temp;Humidity;BMP_temperature;BMP_pressure;BME280_temperature;BME280_humidity;BME280_pressure;Samples;Min_cycle;Max_cycle;Signal;HPM_P1;HPM_P2
2023/07/25 00:00:09;;;;;;;23.90;14.40;;;;;;;16.33;100.00;100617.60;107086;1283;59115;-82
2023/07/25 00:02:34;;;;;;;28.50;13.30;;;;;;;16.31;100.00;100614.52;107077;1283;59371;-82
2023/07/25 00:05:00;;;;;;;28.30;14.40;;;;;;;16.28;100.00;100610.48;107057;1283;59263;-81
2023/07/25 00:07:25;;;;;;;23.60;12.80;;;;;;;16.31;100.00;100607.23;107077;1283;58991;-81
2023/07/25 00:09:51;;;;;;;19.50;12.50;;;;;;;16.29;100.00;100600.52;106878;1283;59067;-82
2023/07/25 00:12:17;;;;;;;24.90;12.40;;;;;;;16.29;100.00;100598.08;107034;1283;59057;-81
2023/07/25 00:14:43;;;;;;;30.60;13.60;;;;;;;16.27;100.00;100594.36;106589;1283;59124;-82
2023/07/25 00:17:08;;;;;;;25.00;13.80;;;;;;;16.28;100.00;100595.95;107090;1283;59038;-82
2023/07/25 00:19:34;;;;;;;24.30;12.10;;;;;;;16.30;100.00;100594.64;107046;1283;59051;-82
2023/07/25 00:21:59;;;;;;;24.30;12.70;;;;;;;16.28;100.00;100594.08;107001;1283;212089;-81
2023/07/25 00:24:25;;;;;;;17.80;11.20;;;;;;;16.27;100.00;100591.48;106457;1283;59253;-81
2023/07/25 00:26:50;;;;;;;20.40;12.00;;;;;;;16.27;100.00;100591.90;107034;1283;59043;-82
2023/07/25 00:29:16;;;;;;;21.40;12.50;;;;;;;16.25;100.00;100593.52;106731;1283;59132;-81
2023/07/25 00:31:41;;;;;;;19.40;11.30;;;;;;;16.25;100.00;100590.92;107035;1283;59054;-81
2023/07/25 00:34:07;;;;;;;21.80;11.50;;;;;;;16.23;100.00;100592.97;107149;1283;59194;-81
2023/07/25 00:36:32;;;;;;;24.40;12.90;;;;;;;16.21;100.00;100592.34;107034;1283;59072;-81
2023/07/25 00:38:58;;;;;;;19.60;12.10;;;;;;;16.23;100.00;100591.54;106593;1283;59162;-80
2023/07/25 00:41:24;;;;;;;17.40;11.30;;;;;;;16.27;100.00;100592.40;107075;1283;59101;-81
2023/07/25 00:43:50;;;;;;;21.50;12.10;;;;;;;16.22;100.00;100592.38;107075;1283;59111;-81
2023/07/25 00:46:18;;;;;;;26.10;13.80;;;;;;;16.22;100.00;100598.05;107070;1283;59074;-81
2023/07/25 00:48:44;;;;;;;23.90;13.70;;;;;;;16.23;100.00;100600.45;106844;1283;59038;-81
2023/07/25 00:51:10;;;;;;;21.10;12.20;;;;;;;16.25;100.00;100607.17;107051;1283;59363;-81
2023/07/25 00:53:36;;;;;;;20.70;11.90;;;;;;;16.17;100.00;100601.92;107058;1283;59076;-79
2023/07/25 00:56:02;;;;;;;20.00;11.80;;;;;;;16.10;100.00;100602.27;107054;1283;59057;-81
2023/07/25 00:58:30;;;;;;;25.80;11.60;;;;;;;16.08;100.00;100599.67;107087;1283;59222;-81
2023/07/25 01:01:06;;;;;;;20.00;13.00;;;;;;;16.06;100.00;100593.17;107013;1283;62898;-81
2023/07/25 01:03:36;;;;;;;20.10;12.10;;;;;;;16.06;100.00;100593.39;107055;1283;59098;-81
2023/07/25 01:06:04;;;;;;;21.70;11.70;;;;;;;16.05;100.00;100591.40;107065;1283;75754;-81
2023/07/25 01:08:29;;;;;;;20.70;11.50;;;;;;;16.02;100.00;100592.32;107026;1283;74661;-81
2023/07/25 01:10:55;;;;;;;19.80;12.00;;;;;;;15.98;100.00;100595.21;107031;1283;59111;-81
2023/07/25 01:13:21;;;;;;;19.00;12.10;;;;;;;15.96;100.00;100598.49;107033;1283;58923;-81
2023/07/25 01:15:48;;;;;;;21.10;13.30;;;;;;;15.93;100.00;100598.59;107065;1283;59038;-81
2023/07/25 01:18:14;;;;;;;19.70;11.80;;;;;;;15.93;100.00;100600.41;107038;1283;58972;-81
2023/07/25 01:20:41;;;;;;;20.30;11.90;;;;;;;15.88;100.00;100595.95;107018;1283;59039;-81
2023/07/25 01:23:08;;;;;;;38.50;17.70;;;;;;;15.87;100.00;100598.20;106834;1283;59171;-81
2023/07/25 01:25:34;;;;;;;37.50;18.00;;;;;;;15.90;100.00;100592.28;107062;1283;58965;-81
2023/07/25 01:27:59;;;;;;;38.60;18.10;;;;;;;15.96;100.00;100594.77;106866;1283;59181;-81
2023/07/25 01:30:25;;;;;;;31.30;15.20;;;;;;;15.94;100.00;100593.58;107040;1283;59438;-81
2023/07/25 01:32:52;;;;;;;29.30;15.00;;;;;;;15.93;100.00;100596.65;107087;1283;59109;-81
2023/07/25 01:35:17;;;;;;;32.90;15.40;;;;;;;15.90;100.00;100596.09;106997;1283;61694;-80
2023/07/25 01:37:43;;;;;;;27.60;13.80;;;;;;;15.85;100.00;100587.59;107077;1283;59017;-81
2023/07/25 01:40:09;;;;;;;38.10;15.30;;;;;;;15.81;100.00;100581.88;107043;1283;59012;-81
2023/07/25 01:42:34;;;;;;;29.00;14.20;;;;;;;15.81;100.00;100585.80;107068;1283;59352;-81
2023/07/25 01:45:00;;;;;;;26.60;15.10;;;;;;;15.77;100.00;100588.20;106658;1283;59349;-81
2023/07/25 01:47:26;;;;;;;28.10;14.40;;;;;;;15.73;100.00;100587.18;107101;1283;59034;-81
2023/07/25 01:49:52;;;;;;;26.60;14.80;;;;;;;15.67;100.00;100587.66;107068;1283;59637;-81
2023/07/25 01:52:18;;;;;;;28.50;13.80;;;;;;;15.62;100.00;100584.76;106687;1283;59136;-81
2023/07/25 01:54:44;;;;;;;25.80;14.40;;;;;;;15.59;100.00;100586.20;107057;1283;59114;-87
2023/07/25 01:57:09;;;;;;;28.80;14.70;;;;;;;15.59;100.00;100586.20;107053;1283;58985;-82
2023/07/25 01:59:35;;;;;;;24.20;13.80;;;;;;;15.57;100.00;100580.84;107064;1283;59337;-81
2023/07/25 02:02:00;;;;;;;27.20;14.30;;;;;;;15.57;100.00;100574.31;107053;1283;59102;-81
2023/07/25 02:04:26;;;;;;;26.00;13.90;;;;;;;15.56;100.00;100574.50;106634;1283;59180;-81
2023/07/25 02:06:51;;;;;;;26.10;14.10;;;;;;;15.53;100.00;100576.90;106569;1283;59109;-81
2023/07/25 02:09:17;;;;;;;28.10;13.40;;;;;;;15.49;100.00;100576.40;107096;1283;59298;-81
2023/07/25 02:11:43;;;;;;;33.80;14.60;;;;;;;15.48;100.00;100581.19;106815;1282;59129;-81
2023/07/25 02:14:08;;;;;;;32.80;15.10;;;;;;;15.49;100.00;100578.41;106951;1283;59473;-81
2023/07/25 02:16:36;;;;;;;26.70;14.50;;;;;;;15.50;100.00;100577.73;107009;1283;59073;-81
2023/07/25 02:19:02;;;;;;;28.00;13.70;;;;;;;15.49;100.00;100580.70;107045;1283;60155;-81
2023/07/25 02:21:28;;;;;;;28.50;14.20;;;;;;;15.48;100.00;100581.67;107057;1283;58982;-87
2023/07/25 02:23:54;;;;;;;29.30;13.80;;;;;;;15.51;100.00;100581.09;107069;1283;59072;-81
2023/07/25 02:26:19;;;;;;;27.90;13.50;;;;;;;15.52;100.00;100575.05;107009;1283;59354;-81
2023/07/25 02:28:45;;;;;;;26.90;13.00;;;;;;;15.55;100.00;100584.78;107104;1283;59170;-81
2023/07/25 02:31:10;;;;;;;23.60;12.80;;;;;;;15.56;100.00;100586.45;107136;1283;59171;-81
2023/07/25 02:33:36;;;;;;;26.10;15.00;;;;;;;15.62;100.00;100588.02;107037;1283;59394;-81
2023/07/25 02:36:02;;;;;;;27.10;13.70;;;;;;;15.69;100.00;100587.77;107018;1283;58998;-81
2023/07/25 02:38:27;;;;;;;27.90;13.60;;;;;;;15.78;100.00;100581.77;106707;1283;59047;-81
2023/07/25 02:40:53;;;;;;;26.20;13.70;;;;;;;15.87;100.00;100584.89;107081;1283;59080;-81
2023/07/25 02:43:18;;;;;;;29.50;15.90;;;;;;;15.96;100.00;100583.93;107090;1283;59069;-81
2023/07/25 02:45:44;;;;;;;34.20;15.80;;;;;;;16.03;100.00;100587.14;107100;1283;59073;-81
2023/07/25 02:48:09;;;;;;;36.30;14.50;;;;;;;16.10;100.00;100586.86;107065;1283;59003;-81
2023/07/25 02:50:35;;;;;;;27.30;14.00;;;;;;;16.16;100.00;100589.60;106627;1287;59112;-81
2023/07/25 02:53:00;;;;;;;29.40;13.80;;;;;;;16.26;100.00;100600.47;106523;1287;59228;-81
2023/07/25 02:55:26;;;;;;;31.30;14.60;;;;;;;16.33;100.00;100604.10;106600;1288;59173;-81
2023/07/25 02:57:51;;;;;;;29.50;14.90;;;;;;;16.41;100.00;100606.20;106615;1287;59020;-81
2023/07/25 03:00:17;;;;;;;26.40;13.50;;;;;;;16.51;100.00;100606.94;106350;1287;59659;-81
2023/07/25 03:02:42;;;;;;;27.70;14.00;;;;;;;16.63;100.00;100607.00;106600;1287;59140;-80
2023/07/25 03:05:09;;;;;;;29.30;14.80;;;;;;;16.74;100.00;100610.46;106630;1288;59193;-82
2023/07/25 03:07:34;;;;;;;37.40;15.50;;;;;;;16.86;100.00;100611.52;106625;1288;58999;-82
2023/07/25 03:09:59;;;;;;;35.40;16.80;;;;;;;16.97;100.00;100617.94;106635;1288;59341;-82
2023/07/25 03:12:25;;;;;;;49.90;17.10;;;;;;;17.08;100.00;100620.30;106618;1287;75242;-83
2023/07/25 03:14:50;;;;;;;35.70;15.80;;;;;;;17.20;100.00;100619.45;106597;1288;59384;-83
2023/07/25 03:17:16;;;;;;;38.50;16.50;;;;;;;17.31;100.00;100620.91;106347;1288;59116;-83
2023/07/25 03:19:41;;;;;;;35.40;14.90;;;;;;;17.49;100.00;100614.15;106611;1288;59075;-83
2023/07/25 03:22:07;;;;;;;26.70;13.60;;;;;;;17.73;100.00;100614.45;106884;1284;59056;-84
2023/07/25 03:24:32;;;;;;;29.10;13.40;;;;;;;18.15;100.00;100613.29;107026;1284;59093;-84
2023/07/25 03:26:58;;;;;;;30.20;13.20;;;;;;;18.68;100.00;100607.77;106862;1284;59091;-82
2023/07/25 03:29:24;;;;;;;32.10;12.60;;;;;;;19.29;100.00;100611.96;106957;1284;59409;-82
2023/07/25 03:31:49;;;;;;;27.60;12.80;;;;;;;19.89;100.00;100610.06;106836;1285;59156;-83
2023/07/25 03:34:15;;;;;;;31.90;13.20;;;;;;;20.43;100.00;100609.45;107020;1284;59225;-82
2023/07/25 03:36:40;;;;;;;34.80;13.10;;;;;;;20.73;100.00;100605.75;106941;1284;72908;-83
2023/07/25 03:39:06;;;;;;;24.50;12.90;;;;;;;20.93;100.00;100607.58;107001;1284;58999;-83
2023/07/25 03:41:31;;;;;;;32.60;14.00;;;;;;;21.05;100.00;100611.20;106999;1284;59186;-83
2023/07/25 03:43:57;;;;;;;21.70;12.10;;;;;;;21.29;100.00;100609.58;106689;1284;59662;-82
2023/07/25 03:46:22;;;;;;;23.10;11.50;;;;;;;21.58;100.00;100608.00;106971;1284;59303;-83
2023/07/25 03:48:48;;;;;;;25.60;12.00;;;;;;;21.92;100.00;100601.02;106971;1285;59099;-83
2023/07/25 03:51:13;;;;;;;61.00;22.20;;;;;;;22.51;100.00;100600.14;106993;1284;59122;-83
2023/07/25 03:53:38;;;;;;;51.10;20.80;;;;;;;23.18;100.00;100602.52;106746;1285;59200;-83
2023/07/25 03:56:04;;;;;;;40.40;16.80;;;;;;;23.82;100.00;100603.04;106993;1285;59069;-83
2023/07/25 03:58:30;;;;;;;33.20;14.90;;;;;;;24.45;100.00;100600.77;107003;1284;59173;-83
2023/07/25 04:00:55;;;;;;;27.40;12.50;;;;;;;25.01;100.00;100607.07;106978;1284;60945;-83
2023/07/25 04:03:21;;;;;;;17.70;9.80;;;;;;;25.51;100.00;100604.61;106970;1284;59116;-82
2023/07/25 04:05:46;;;;;;;31.70;12.60;;;;;;;25.97;100.00;100601.56;107019;1285;59098;-84
2023/07/25 04:08:12;;;;;;;30.00;10.40;;;;;;;26.49;100.00;100599.97;106994;1284;59174;-83
2023/07/25 04:10:38;;;;;;;21.20;9.40;;;;;;;27.17;99.24;100598.41;107050;1284;59041;-81
2023/07/25 04:13:03;;;;;;;21.90;9.20;;;;;;;27.84;94.41;100592.13;106939;1284;74527;-83
2023/07/25 04:15:29;;;;;;;27.20;9.20;;;;;;;28.44;89.57;100591.70;106976;1284;59080;-83
2023/07/25 04:17:54;;;;;;;20.30;9.30;;;;;;;28.82;85.48;100589.19;106986;1285;59081;-83
2023/07/25 04:20:20;;;;;;;20.90;8.90;;;;;;;29.14;81.27;100592.06;107020;1283;59002;-83
2023/07/25 04:22:45;;;;;;;18.10;8.70;;;;;;;29.53;78.67;100594.42;107145;1283;59005;-83
2023/07/25 04:25:11;;;;;;;21.10;8.90;;;;;;;30.14;75.72;100595.08;107085;1283;58973;-84
2023/07/25 04:27:36;;;;;;;23.10;8.60;;;;;;;30.58;72.06;100601.36;107081;1283;59326;-83
2023/07/25 04:30:02;;;;;;;15.70;8.40;;;;;;;30.92;69.88;100599.56;106838;1283;59041;-81
2023/07/25 04:32:28;;;;;;;26.10;9.20;;;;;;;31.48;66.48;100601.14;107063;1283;59030;-83
2023/07/25 04:34:53;;;;;;;19.10;8.30;;;;;;;31.96;63.32;100600.73;106940;1283;59079;-83
2023/07/25 04:37:19;;;;;;;16.30;7.60;;;;;;;32.33;61.77;100605.06;107086;1283;73383;-84
2023/07/25 04:39:44;;;;;;;17.00;8.00;;;;;;;32.90;59.50;100604.01;107070;1283;59388;-84
2023/07/25 04:42:10;;;;;;;14.50;8.00;;;;;;;33.28;56.41;100595.67;107082;1283;59179;-83
2023/07/25 04:44:35;;;;;;;21.70;8.50;;;;;;;33.56;54.99;100594.49;107082;1283;59104;-84
2023/07/25 04:47:01;;;;;;;19.60;8.70;;;;;;;34.01;52.63;100586.65;107126;1283;59112;-83
2023/07/25 04:49:26;;;;;;;17.80;8.70;;;;;;;34.53;51.64;100584.70;107063;1283;59164;-84
2023/07/25 04:51:52;;;;;;;16.90;9.00;;;;;;;34.84;50.02;100581.23;107087;1283;59304;-84
2023/07/25 04:54:17;;;;;;;28.80;8.40;;;;;;;35.08;48.48;100583.61;107074;1283;59127;-83
2023/07/25 04:56:44;;;;;;;15.40;8.30;;;;;;;35.57;47.51;100576.02;107104;1283;59127;-83
2023/07/25 04:59:09;;;;;;;17.50;8.60;;;;;;;36.02;46.74;100572.17;107075;1283;59071;-84
2023/07/25 05:01:35;;;;;;;14.80;8.00;;;;;;;36.08;44.89;100567.50;107113;1283;59958;-84
2023/07/25 05:04:00;;;;;;;16.00;8.80;;;;;;;36.25;44.57;100572.94;106667;1288;73265;-83
2023/07/25 05:06:26;;;;;;;17.30;8.40;;;;;;;36.43;44.10;100569.69;106815;1283;59238;-84
2023/07/25 05:11:50;;;;;;;17.60;7.60;;;;;;;36.89;42.98;100572.56;107049;1283;61511;-83
2023/07/25 05:14:16;;;;;;;19.20;8.60;;;;;;;37.17;42.51;100573.34;106664;1283;59946;-83
2023/07/25 05:16:41;;;;;;;15.10;9.20;;;;;;;37.27;42.20;100573.80;106808;1283;59057;-84
2023/07/25 05:19:07;;;;;;;13.40;8.70;;;;;;;37.70;41.52;100574.91;107116;1283;59065;-84
2023/07/25 05:21:32;;;;;;;17.70;8.20;;;;;;;38.18;40.74;100578.19;106782;1285;59063;-83
2023/07/25 05:23:58;;;;;;;17.90;9.00;;;;;;;38.32;39.71;100576.54;107028;1284;59748;-83
2023/07/25 05:26:24;;;;;;;18.90;9.40;;;;;;;38.36;38.98;100571.81;106671;1285;74473;-83
2023/07/25 05:28:49;;;;;;;19.10;8.90;;;;;;;38.79;38.38;100563.89;106993;1285;59090;-83
2023/07/25 05:31:15;;;;;;;23.20;10.40;;;;;;;39.00;37.26;100557.44;106840;1284;59074;-84
2023/07/25 05:33:40;;;;;;;22.70;11.00;;;;;;;39.16;37.38;100560.25;106840;1285;59030;-84
2023/07/25 05:36:06;;;;;;;18.40;9.00;;;;;;;39.58;37.50;100553.45;106912;1285;59396;-83
2023/07/25 05:38:31;;;;;;;17.20;9.80;;;;;;;40.02;35.80;100549.25;106915;1285;73258;-84
2023/07/25 05:40:57;;;;;;;22.80;9.80;;;;;;;40.39;35.97;100551.33;106979;1284;58991;-83
2023/07/25 05:43:23;;;;;;;16.80;8.90;;;;;;;40.50;34.72;100548.92;107054;1284;59350;-84
2023/07/25 05:45:48;;;;;;;17.30;9.60;;;;;;;40.60;34.18;100548.89;106896;1285;59158;-83
2023/07/25 05:48:14;;;;;;;15.60;8.30;;;;;;;40.80;33.94;100545.84;107093;1283;59077;-83
2023/07/25 05:50:39;;;;;;;14.40;7.50;;;;;;;40.99;33.41;100545.77;107031;1284;73556;-83
2023/07/25 05:53:05;;;;;;;10.00;6.00;;;;;;;40.98;32.95;100546.73;107011;1284;59101;-83
2023/07/25 05:55:30;;;;;;;11.50;6.00;;;;;;;41.13;32.29;100550.34;107045;1285;59099;-83
2023/07/25 05:57:56;;;;;;;10.30;6.10;;;;;;;41.58;31.78;100554.34;107077;1283;59034;-83
2023/07/25 06:00:22;;;;;;;13.10;6.60;;;;;;;41.93;31.60;100550.40;107093;1284;59179;-81
2023/07/25 06:02:48;;;;;;;13.50;6.40;;;;;;;42.09;31.11;100545.67;107046;1284;61147;-84
2023/07/25 06:05:14;;;;;;;17.70;6.60;;;;;;;42.11;30.46;100541.23;106860;1285;59042;-83
2023/07/25 06:07:39;;;;;;;13.40;6.70;;;;;;;42.19;30.49;100542.35;107046;1284;59035;-83
2023/07/25 06:10:06;;;;;;;13.40;6.10;;;;;;;42.58;29.90;100540.56;107078;1283;59058;-84
2023/07/25 06:12:32;;;;;;;12.60;6.40;;;;;;;42.93;29.43;100537.67;107030;1285;59339;-84
2023/07/25 06:14:57;;;;;;;14.10;7.20;;;;;;;43.09;29.10;100534.73;107071;1284;58899;-84
2023/07/25 06:17:23;;;;;;;13.50;7.60;;;;;;;43.06;29.06;100531.25;106788;1283;59598;-82
2023/07/25 06:19:48;;;;;;;11.50;6.80;;;;;;;43.38;28.75;100529.73;107060;1283;74285;-83
2023/07/25 06:22:14;;;;;;;10.70;6.40;;;;;;;43.77;28.12;100528.94;107115;1282;59021;-86
2023/07/25 06:24:41;;;;;;;13.90;7.10;;;;;;;43.89;27.18;100528.24;107079;1282;59167;-85
2023/07/25 06:27:06;;;;;;;10.60;6.50;;;;;;;43.82;27.39;100526.38;106574;1283;59192;-86
2023/07/25 06:29:32;;;;;;;12.70;7.80;;;;;;;43.84;27.40;100520.88;107122;1282;59016;-85
2023/07/25 06:31:58;;;;;;;13.30;6.70;;;;;;;43.94;26.91;100521.83;106764;1283;59382;-86
2023/07/25 06:34:24;;;;;;;12.90;7.20;;;;;;;44.07;26.59;100527.39;107092;1282;58989;-86
2023/07/25 06:36:50;;;;;;;12.90;6.90;;;;;;;44.14;26.34;100527.95;106855;1283;59204;-86
2023/07/25 06:39:15;;;;;;;11.80;7.40;;;;;;;44.25;26.64;100528.14;107126;1282;59350;-86
2023/07/25 06:41:41;;;;;;;9.50;7.20;;;;;;;44.31;26.11;100530.02;106588;1283;59249;-87
2023/07/25 06:44:06;;;;;;;12.60;7.90;;;;;;;44.36;26.49;100526.34;107084;1283;59034;-87
2023/07/25 06:46:32;;;;;;;14.10;7.30;;;;;;;44.66;26.55;100530.55;107144;1282;58951;-86
2023/07/25 06:48:57;;;;;;;16.10;7.40;;;;;;;44.68;25.86;100527.57;106966;1283;59577;-87
2023/07/25 06:51:23;;;;;;;16.40;8.40;;;;;;;44.63;25.57;100528.34;107124;1282;59012;-87
2023/07/25 06:53:48;;;;;;;10.80;7.90;;;;;;;44.77;25.67;100523.74;107097;1282;59427;-86
2023/07/25 06:56:14;;;;;;;11.30;7.80;;;;;;;45.07;26.14;100518.21;106582;1283;59402;-86
2023/07/25 06:58:40;;;;;;;12.90;7.40;;;;;;;45.64;25.56;100519.66;107124;1282;59103;-87
2023/07/25 07:01:06;;;;;;;18.50;8.20;;;;;;;45.91;25.05;100520.95;107197;1282;59063;-87
2023/07/25 07:03:32;;;;;;;12.50;7.40;;;;;;;45.84;24.40;100516.19;107090;1282;64906;-86
2023/07/25 07:05:57;;;;;;;16.20;8.00;;;;;;;45.60;24.10;100510.80;107137;1282;59044;-86
2023/07/25 07:11:45;;;;;;;16.40;7.50;;;;;;;45.59;24.12;100516.02;107139;1282;65675;-86
2023/07/25 07:14:11;;;;;;;10.20;7.00;;;;;;;45.60;23.98;100515.35;106631;1283;59285;-86
2023/07/25 07:16:36;;;;;;;18.00;7.80;;;;;;;45.62;23.94;100516.66;107087;1282;59003;-86
2023/07/25 07:19:02;;;;;;;11.50;7.40;;;;;;;45.80;24.50;100515.91;107090;1282;58992;-86
2023/07/25 07:21:27;;;;;;;13.30;8.10;;;;;;;46.06;24.28;100509.96;107137;1282;59084;-86
2023/07/25 07:23:53;;;;;;;18.40;8.30;;;;;;;46.00;23.33;100512.30;107150;1282;59298;-86
2023/07/25 07:26:18;;;;;;;11.90;7.40;;;;;;;45.77;23.46;100514.08;106759;1283;59066;-87
2023/07/25 07:28:45;;;;;;;18.30;8.60;;;;;;;45.71;23.92;100513.09;107108;1283;59075;-84
2023/07/25 07:31:12;;;;;;;12.10;7.40;;;;;;;45.63;23.64;100508.65;107105;1282;58987;-86
2023/07/25 07:33:38;;;;;;;9.30;7.10;;;;;;;45.63;23.44;100509.10;106955;1282;59062;-87
2023/07/25 07:36:04;;;;;;;11.30;7.30;;;;;;;45.79;23.79;100501.55;107079;1282;59026;-86
2023/07/25 07:38:29;;;;;;;16.10;7.60;;;;;;;46.21;23.52;100498.58;106861;1283;59128;-85
2023/07/25 07:40:55;;;;;;;13.70;7.70;;;;;;;46.29;22.75;100505.42;106550;1288;59127;-86
2023/07/25 07:43:20;;;;;;;12.70;7.80;;;;;;;46.38;22.67;100511.17;107135;1282;59061;-86
2023/07/25 07:45:46;;;;;;;13.40;7.00;;;;;;;46.26;22.30;100511.73;106580;1283;59396;-85
2023/07/25 07:48:12;;;;;;;8.50;7.00;;;;;;;45.91;22.67;100508.88;107123;1282;59043;-86
2023/07/25 07:50:37;;;;;;;11.70;8.20;;;;;;;45.91;22.58;100499.40;107110;1282;59009;-85
2023/07/25 07:53:03;;;;;;;12.00;8.00;;;;;;;45.94;22.58;100493.84;106778;1283;59121;-86
2023/07/25 07:55:29;;;;;;;16.90;7.10;;;;;;;45.91;22.91;100493.09;106894;1283;59072;-86
2023/07/25 07:57:55;;;;;;;11.50;7.60;;;;;;;46.04;22.87;100492.60;107123;1282;59053;-86
2023/07/25 08:00:21;;;;;;;9.20;6.80;;;;;;;46.40;22.63;100489.61;107049;1282;58961;-87
2023/07/25 08:02:47;;;;;;;10.50;6.30;;;;;;;46.71;22.42;100488.94;106604;1283;59186;-86
2023/07/25 08:05:13;;;;;;;11.00;7.10;;;;;;;46.76;22.33;100491.44;107103;1283;59335;-86
2023/07/25 08:07:40;;;;;;;10.40;6.70;;;;;;;46.99;22.51;100493.91;106903;1283;59091;-86
2023/07/25 08:10:06;;;;;;;9.90;6.60;;;;;;;47.24;22.15;100494.56;107063;1282;60028;-86
2023/07/25 08:12:33;;;;;;;13.40;6.20;;;;;;;46.97;21.71;100492.41;106556;1283;59142;-86
2023/07/25 08:14:58;;;;;;;11.80;7.10;;;;;;;46.72;22.00;100495.90;107066;1282;59039;-84
2023/07/25 08:17:24;;;;;;;7.70;6.70;;;;;;;46.86;22.31;100499.30;107111;1282;59049;-85
2023/07/25 08:19:50;;;;;;;7.20;6.30;;;;;;;46.95;22.35;100506.83;107103;1282;59082;-85
2023/07/25 08:22:16;;;;;;;12.70;6.80;;;;;;;46.87;21.84;100503.75;106824;1283;59124;-85
2023/07/25 08:24:42;;;;;;;9.90;6.40;;;;;;;46.89;21.88;100503.96;107101;1283;59136;-85
2023/07/25 08:27:08;;;;;;;7.00;6.30;;;;;;;47.04;21.91;100501.87;107090;1282;59090;-85
2023/07/25 08:29:38;;;;;;;7.30;6.00;;;;;;;47.04;21.77;100501.20;107109;1283;59056;-85
2023/07/25 08:32:04;;;;;;;8.60;5.80;;;;;;;47.02;21.82;100492.94;107099;1283;63633;-85
2023/07/25 08:34:30;;;;;;;6.50;5.90;;;;;;;47.10;21.80;100486.94;106587;1283;59056;-85
2023/07/25 08:36:55;;;;;;;11.60;5.70;;;;;;;46.99;21.76;100476.11;107120;1282;59053;-86
2023/07/25 08:39:21;;;;;;;12.20;6.10;;;;;;;47.04;22.20;100466.58;106899;1283;59071;-86
2023/07/25 08:41:52;;;;;;;7.30;5.70;;;;;;;47.29;21.87;100464.72;107126;1282;59128;-85
2023/07/25 08:44:21;;;;;;;10.50;5.70;;;;;;;47.23;21.84;100460.05;107050;1283;64936;-85
2023/07/25 08:46:50;;;;;;;11.20;6.20;;;;;;;47.16;21.63;100458.60;107080;1283;59017;-84
2023/07/25 08:49:17;;;;;;;10.00;5.80;;;;;;;47.06;21.79;100461.10;107117;1282;59130;-86
2023/07/25 08:51:44;;;;;;;9.30;5.90;;;;;;;46.81;21.90;100463.80;106965;1283;59065;-84
2023/07/25 08:54:15;;;;;;;12.70;6.40;;;;;;;46.78;21.83;100462.56;107129;1282;64664;-85
2023/07/25 08:56:42;;;;;;;10.00;5.60;;;;;;;46.82;21.60;100464.98;106746;1288;63966;-85
2023/07/25 08:59:09;;;;;;;8.00;5.90;;;;;;;47.06;21.79;100455.48;106554;1283;59079;-86
2023/07/25 09:01:35;;;;;;;9.00;6.50;;;;;;;47.24;21.37;100453.30;106627;1283;59168;-86
2023/07/25 09:04:01;;;;;;;9.00;6.00;;;;;;;47.06;20.93;100451.73;107125;1282;58984;-85
2023/07/25 09:06:28;;;;;;;11.60;6.40;;;;;;;46.78;21.09;100449.49;107116;1282;59433;-85
2023/07/25 09:08:54;;;;;;;10.30;5.50;;;;;;;46.41;21.23;100441.39;107099;1283;59046;-84
2023/07/25 09:11:20;;;;;;;6.20;4.80;;;;;;;45.18;21.95;100444.70;107095;1283;58977;-84
2023/07/25 09:13:48;;;;;;;10.70;6.20;;;;;;;44.28;22.68;100438.95;107071;1283;59056;-85
2023/07/25 09:16:13;;;;;;;9.40;5.50;;;;;;;44.18;23.24;100441.11;106962;1283;59103;-84
2023/07/25 09:18:39;;;;;;;8.30;5.50;;;;;;;44.33;22.55;100441.90;107053;1282;58963;-85
2023/07/25 09:21:05;;;;;;;8.50;5.40;;;;;;;44.56;22.53;100428.48;107090;1283;59105;-84
2023/07/25 09:23:30;;;;;;;14.50;5.50;;;;;;;44.77;22.44;100424.46;106984;1283;59008;-85
2023/07/25 09:26:08;;;;;;;9.50;5.60;;;;;;;44.79;22.38;100417.57;107160;1287;59034;-84
2023/07/25 09:28:34;;;;;;;7.30;5.40;;;;;;;44.77;22.15;100410.89;106427;1283;66120;-82
2023/07/25 09:31:04;;;;;;;12.20;5.30;;;;;;;44.74;22.24;100408.05;107099;1282;59058;-81
2023/07/25 09:33:30;;;;;;;9.40;5.40;;;;;;;44.62;22.28;100408.13;107087;1283;59014;-82
2023/07/25 09:35:57;;;;;;;8.90;5.60;;;;;;;44.31;22.40;100400.86;106933;1286;58810;-82
2023/07/25 09:38:23;;;;;;;10.60;5.20;;;;;;;44.05;22.85;100397.57;107104;1282;74319;-82
2023/07/25 09:40:49;;;;;;;13.70;5.60;;;;;;;43.80;22.76;100403.27;107116;1283;59034;-82
2023/07/25 09:43:24;;;;;;;11.30;6.10;;;;;;;43.49;23.13;100403.33;107077;1282;59089;-82
2023/07/25 09:45:51;;;;;;;12.40;5.90;;;;;;;43.35;23.10;100406.30;107094;1283;61213;-82
2023/07/25 09:48:17;;;;;;;10.10;5.20;;;;;;;43.25;23.58;100400.96;107064;1282;61210;-81
2023/07/25 09:50:44;;;;;;;11.40;5.60;;;;;;;43.03;24.12;100395.42;106770;1283;59170;-82
2023/07/25 09:53:11;;;;;;;10.40;5.20;;;;;;;42.89;23.86;100392.24;107103;1283;58957;-82
2023/07/25 09:55:37;;;;;;;7.80;5.30;;;;;;;42.60;23.97;100404.71;107081;1282;73450;-81
2023/07/25 09:58:03;;;;;;;9.70;5.30;;;;;;;42.37;24.09;100409.52;107121;1283;58988;-81
2023/07/25 10:00:30;;;;;;;7.60;5.00;;;;;;;42.16;24.43;100408.32;107072;1282;59028;-82
2023/07/25 10:02:57;;;;;;;8.30;5.60;;;;;;;41.91;24.52;100406.70;107074;1283;58983;-82
2023/07/25 10:05:22;;;;;;;12.90;4.90;;;;;;;41.60;24.92;100400.14;106621;1283;59241;-82
2023/07/25 10:07:49;;;;;;;8.20;5.50;;;;;;;41.39;25.09;100392.64;107090;1282;59466;-82
2023/07/25 10:10:17;;;;;;;10.80;5.60;;;;;;;41.10;25.28;100395.02;107130;1282;59488;-80
2023/07/25 10:12:42;;;;;;;8.60;5.50;;;;;;;40.52;25.56;100396.28;107118;1282;59323;-82
2023/07/25 10:15:09;;;;;;;10.30;5.30;;;;;;;40.02;26.09;100393.48;106725;1282;59154;-82
2023/07/25 10:17:35;;;;;;;8.10;5.20;;;;;;;39.81;26.07;100388.73;107128;1283;58945;-81
2023/07/25 10:20:05;;;;;;;10.20;5.30;;;;;;;39.67;26.16;100383.58;107075;1283;59049;-81
2023/07/25 10:22:38;;;;;;;8.60;5.10;;;;;;;39.58;26.58;100383.21;106730;1282;61181;-82
2023/07/25 10:25:10;;;;;;;6.90;4.80;;;;;;;39.65;26.65;100377.94;107069;1283;60942;-81
2023/07/25 10:27:35;;;;;;;9.50;5.70;;;;;;;39.73;27.31;100374.54;106615;1283;75506;-80
2023/07/25 10:30:04;;;;;;;8.90;4.70;;;;;;;39.97;27.79;100372.09;107126;1284;59326;-79
2023/07/25 10:32:44;;;;;;;10.80;5.40;;;;;;;39.99;27.48;100374.27;107064;1283;73425;-81
2023/07/25 10:35:09;;;;;;;11.10;5.20;;;;;;;40.06;27.04;100368.90;107037;1283;61129;-81
2023/07/25 10:37:43;;;;;;;8.70;5.20;;;;;;;39.98;27.02;100369.95;107127;1282;59099;-80
2023/07/25 10:40:08;;;;;;;9.40;5.20;;;;;;;40.06;27.13;100362.20;107114;1283;75464;-81
2023/07/25 10:42:41;;;;;;;10.10;5.40;;;;;;;40.17;26.86;100359.70;107110;1283;59328;-80
2023/07/25 10:45:07;;;;;;;15.40;5.80;;;;;;;40.04;26.61;100359.07;107063;1283;72303;-80
2023/07/25 10:47:45;;;;;;;11.80;4.90;;;;;;;39.98;26.55;100356.96;107105;1283;59010;-80
2023/07/25 10:50:11;;;;;;;11.00;5.90;;;;;;;39.95;26.74;100352.60;107104;1287;60202;-81
2023/07/25 10:52:44;;;;;;;10.70;5.40;;;;;;;39.98;26.87;100348.97;107118;1283;59068;-81
2023/07/25 10:55:13;;;;;;;12.40;5.40;;;;;;;40.09;27.17;100343.27;107092;1283;74281;-81
2023/07/25 10:57:39;;;;;;;10.60;5.10;;;;;;;40.04;26.96;100348.30;106830;1283;73555;-80
2023/07/25 11:00:09;;;;;;;6.50;4.90;;;;;;;39.95;27.31;100344.05;107087;1282;58987;-81
2023/07/25 11:02:40;;;;;;;11.30;5.30;;;;;;;39.83;27.27;100341.11;106568;1283;61690;-85
2023/07/25 11:05:12;;;;;;;17.10;5.40;;;;;;;39.82;27.19;100353.06;106767;1288;75892;-80